KNZY

Details ICAO KNZY (NZY)
Name San Diego North Island NAS
Region United States
Timezone America/Los_Angeles (UTC-8.0)
Plans Departing 27
Arriving 23
Stats Elevation 26 ft / 8 m (AMSL)
Location 32.698154° -117.213036°
Runways 2
Magnetic Variation 11.524° E
Sunrise 2017-12-13 14:43:58 UTC / 2017-12-13 06:43:58 Local
Sunset 2017-12-14 00:45:16 UTC / 2017-12-13 16:45:16 Local
Advertisement - Login to hide

Runways

ID Width Length Bearing (true) Bearing (mag) Surface Threshold Offset Overrun Length
11 300 ft / 91 m 7,497 ft / 2,285 m 122.10° 110.58° Asphalt 0 ft / 0 m 200 ft / 61 m
18 200 ft / 61 m 8,021 ft / 2,445 m 195.39° 183.87° Asphalt 0 ft / 0 m 600 ft / 183 m
29 300 ft / 91 m 7,497 ft / 2,285 m 302.12° 290.60° Asphalt 0 ft / 0 m 0 ft / 0 m
36 200 ft / 61 m 8,021 ft / 2,445 m 15.39° 3.87° Asphalt 0 ft / 0 m 600 ft / 183 m

Map

Weather


0- 5 10 15 20 25 30 35+ Temperature / ° C

Clouds and Precipitation
Forecast for 2017-12-13 18:00 UTC. Updated 2 hours ago

Ground ~20,000 ft ~40,000 ft Winds

METAR

KNZY 131752Z 00000KT 10SM FEW250 21/M03 A3001 RMK SLP163 T02061028 10206 20083 50003

TAF

TAF KNZY 1315/1415 VRB05KT 9999 FEW250 522409 523308 QNH2996INS FM131800 VRB06KT 9999 FEW250 520009 520905 QNH2992INS T23/1321Z T10/1412Z FS30022

Frequencies

Clearance 128.40 MHz CLNC DEL
Tower 135.10 MHz TWR
Ground 118.00 MHz GND
Approach 125.15 MHz SOCAL APP/DEP
Warning: Do not use this data for real-world aviation or navigation. No guarantee of current accuracy is given.